createdAt,value
2019-05-17T00:00:04.584Z,94.32
2019-05-17T00:01:07.088Z,94.56
2019-05-17T00:02:06.814Z,94.74
2019-05-17T00:03:06.804Z,94.70
2019-05-17T00:04:04.552Z,93.65
2019-05-17T00:05:06.747Z,94.12
2019-05-17T00:06:06.786Z,94.46
2019-05-17T00:07:06.499Z,95.32
2019-05-17T00:08:04.535Z,95.22
2019-05-17T00:09:06.882Z,95.32
2019-05-17T00:10:06.572Z,95.12
2019-05-17T00:11:06.606Z,94.93
2019-05-17T00:12:04.513Z,95.61
2019-05-17T00:13:07.010Z,95.22
2019-05-17T00:14:06.351Z,95.32
2019-05-17T00:15:06.918Z,95.41
2019-05-17T00:16:07.011Z,95.17
2019-05-17T00:17:06.476Z,95.51
2019-05-17T00:18:06.715Z,96.46
2019-05-17T00:19:04.477Z,96.65
2019-05-17T00:20:06.310Z,96.27
2019-05-17T00:21:04.468Z,96.56
2019-05-17T00:22:04.467Z,95.98
2019-05-17T00:23:06.767Z,95.32
2019-05-17T00:24:06.492Z,94.93
2019-05-17T00:25:04.449Z,95.98
2019-05-17T00:26:06.952Z,94.74
2019-05-17T00:27:06.569Z,92.88
2019-05-17T00:28:04.434Z,94.17
2019-05-17T00:29:06.650Z,95.32
2019-05-17T00:30:06.480Z,95.79
2019-05-17T00:31:06.483Z,95.22
2019-05-17T00:32:06.424Z,95.22
2019-05-17T00:33:04.411Z,95.51
2019-05-17T00:34:04.399Z,97.03
2019-05-17T00:35:04.396Z,96.46
2019-05-17T00:36:06.556Z,96.56
2019-05-17T00:37:06.819Z,97.08
2019-05-17T00:38:06.476Z,97.75
2019-05-17T00:39:04.375Z,97.75
2019-05-17T00:40:04.375Z,98.60
2019-05-17T00:41:06.642Z,97.70
2019-05-17T00:42:06.751Z,95.89
2019-05-17T00:43:06.423Z,95.32
2019-05-17T00:44:06.195Z,97.56
2019-05-17T00:45:06.586Z,96.56
2019-05-17T00:46:06.501Z,96.94
2019-05-17T00:47:06.347Z,97.13
2019-05-17T00:48:06.307Z,98.13
2019-05-17T00:49:06.342Z,97.41
2019-05-17T00:50:04.334Z,95.51
2019-05-17T00:51:04.312Z,96.17
2019-05-17T00:52:04.311Z,96.56
2019-05-17T00:53:04.320Z,97.17
2019-05-17T00:54:06.633Z,98.03
2019-05-17T00:55:06.606Z,98.13
2019-05-17T00:56:06.469Z,97.13
2019-05-17T00:57:04.284Z,96.75
2019-05-17T00:58:06.446Z,96.36
2019-05-17T00:59:04.265Z,98.03
2019-05-17T01:00:04.270Z,99.27
2019-05-17T01:01:04.265Z,97.51
2019-05-17T01:02:04.254Z,97.17
2019-05-17T01:03:06.786Z,98.22
2019-05-17T01:04:06.666Z,98.99
2019-05-17T01:05:06.189Z,98.41
2019-05-17T01:06:06.156Z,97.13
2019-05-17T01:07:04.226Z,96.36
2019-05-17T01:08:06.904Z,97.03
2019-05-17T01:09:04.295Z,96.98
2019-05-17T01:10:04.209Z,97.46
2019-05-17T01:11:04.207Z,98.22
2019-05-17T01:12:04.203Z,98.22
2019-05-17T01:13:06.540Z,98.27
2019-05-17T01:14:06.664Z,97.22
2019-05-17T01:15:04.188Z,97.13
2019-05-17T01:16:04.177Z,96.17
2019-05-17T01:17:04.174Z,94.74
2019-05-17T01:18:04.187Z,94.74
2019-05-17T01:19:04.161Z,96.17
2019-05-17T01:20:04.158Z,96.17
2019-05-17T01:21:06.255Z,95.61
2019-05-17T01:22:04.148Z,95.89
2019-05-17T01:23:04.184Z,94.93
2019-05-17T01:24:04.136Z,96.46
2019-05-17T01:25:06.240Z,98.03
2019-05-17T01:26:04.126Z,98.22
2019-05-17T01:27:06.388Z,99.18
2019-05-17T01:28:04.114Z,98.70
2019-05-17T01:29:04.110Z,97.80
2019-05-17T01:30:04.109Z,98.32
2019-05-17T01:31:06.482Z,96.36
2019-05-17T01:32:06.514Z,96.94
2019-05-17T01:33:06.411Z,97.13
2019-05-17T01:34:04.084Z,97.99
2019-05-17T01:35:04.079Z,97.94
2019-05-17T01:36:06.595Z,98.36
2019-05-17T01:37:06.334Z,97.03
2019-05-17T01:38:04.060Z,96.17
2019-05-17T01:39:14.333Z,95.89
2019-05-17T01:40:04.040Z,94.93
2019-05-17T01:41:04.046Z,95.12
2019-05-17T01:42:04.044Z,94.89
2019-05-17T01:43:04.026Z,95.41
2019-05-17T01:44:04.024Z,96.46
2019-05-17T01:45:04.015Z,96.36
2019-05-17T01:46:04.010Z,95.61
2019-05-17T01:47:04.012Z,95.12
2019-05-17T01:48:03.994Z,94.65
2019-05-17T01:49:03.999Z,95.61
2019-05-17T01:50:03.993Z,95.51
2019-05-17T01:51:03.980Z,94.93
2019-05-17T01:52:03.978Z,95.41
2019-05-17T01:53:03.989Z,95.32
2019-05-17T01:54:03.965Z,95.22
2019-05-17T01:55:03.982Z,95.70
2019-05-17T01:56:06.195Z,96.36
2019-05-17T01:57:03.947Z,97.22
2019-05-17T01:58:03.942Z,96.46
2019-05-17T01:59:03.928Z,96.36
2019-05-17T02:00:06.274Z,96.46
2019-05-17T02:01:03.921Z,96.56
2019-05-17T02:02:03.920Z,95.51
2019-05-17T02:03:10.644Z,95.51
2019-05-17T02:04:03.912Z,96.17
2019-05-17T02:05:06.314Z,96.98
2019-05-17T02:06:03.893Z,96.36
2019-05-17T02:07:03.878Z,96.08
2019-05-17T02:08:06.422Z,97.84
2019-05-17T02:09:06.209Z,97.65
2019-05-17T02:10:03.869Z,97.13
2019-05-17T02:11:03.866Z,96.46
2019-05-17T02:12:03.854Z,96.46
2019-05-17T02:13:06.355Z,96.56
2019-05-17T02:14:03.835Z,96.56
2019-05-17T02:15:03.852Z,97.36
2019-05-17T02:16:03.826Z,97.27
2019-05-17T02:17:03.818Z,97.17
2019-05-17T02:18:03.813Z,97.13
2019-05-17T02:19:03.803Z,98.41
2019-05-17T02:20:03.803Z,99.89
2019-05-17T02:21:03.807Z,99.99
2019-05-17T02:22:03.785Z,99.75
2019-05-17T02:23:03.784Z,98.22
2019-05-17T02:24:03.776Z,97.56
2019-05-17T02:25:03.770Z,98.41
2019-05-17T02:26:03.761Z,99.32
2019-05-17T02:27:03.751Z,99.99
2019-05-17T02:28:03.754Z,99.99
2019-05-17T02:29:03.749Z,99.99
2019-05-17T02:30:03.733Z,99.99
2019-05-17T02:31:03.760Z,99.99
2019-05-17T02:32:04.124Z,99.99
2019-05-17T02:33:04.307Z,99.99
2019-05-17T02:34:03.714Z,99.99
2019-05-17T02:35:03.717Z,99.99
2019-05-17T02:36:03.704Z,99.99
2019-05-17T02:37:03.698Z,99.99
2019-05-17T02:38:03.694Z,99.99
2019-05-17T02:39:03.834Z,99.99
2019-05-17T02:40:08.083Z,99.99
2019-05-17T02:41:03.791Z,99.99
2019-05-17T02:42:03.666Z,99.99
2019-05-17T02:43:03.757Z,99.99
2019-05-17T02:44:03.688Z,99.99
2019-05-17T02:45:03.675Z,99.99
2019-05-17T02:46:04.209Z,99.99
2019-05-17T02:47:03.649Z,99.99
2019-05-17T02:48:04.246Z,99.99
2019-05-17T02:49:03.640Z,99.99
2019-05-17T02:50:05.550Z,99.99
2019-05-17T02:51:03.900Z,99.99
2019-05-17T02:52:03.634Z,99.99
2019-05-17T02:53:04.702Z,99.99
2019-05-17T02:54:04.328Z,99.99
2019-05-17T02:55:04.224Z,99.99
2019-05-17T02:56:03.764Z,99.99
2019-05-17T02:57:03.576Z,99.99
2019-05-17T02:58:03.812Z,99.99
2019-05-17T02:59:03.912Z,99.99
2019-05-17T03:00:04.640Z,99.99
2019-05-17T03:01:04.098Z,99.99
2019-05-17T03:02:03.826Z,99.99
2019-05-17T03:03:03.951Z,99.99
2019-05-17T03:04:04.051Z,99.99
2019-05-17T03:05:04.269Z,99.99
2019-05-17T03:06:03.674Z,99.99
2019-05-17T03:07:04.121Z,99.99
2019-05-17T03:08:04.466Z,99.99
2019-05-17T03:09:03.712Z,99.99
2019-05-17T03:10:18.142Z,99.99
2019-05-17T03:11:03.754Z,99.99
2019-05-17T03:12:03.939Z,99.99
2019-05-17T03:13:04.202Z,99.99
2019-05-17T03:14:04.195Z,99.99
2019-05-17T03:15:04.250Z,99.99
2019-05-17T03:16:03.967Z,99.99
2019-05-17T03:17:03.673Z,99.99
2019-05-17T03:18:04.068Z,99.99
2019-05-17T03:19:04.339Z,99.99
2019-05-17T03:20:04.298Z,99.99
2019-05-17T03:21:04.179Z,99.99
2019-05-17T03:22:07.349Z,99.99
2019-05-17T03:23:04.196Z,99.99
2019-05-17T03:24:03.586Z,99.99
2019-05-17T03:25:03.778Z,99.99
2019-05-17T03:26:03.940Z,99.99
2019-05-17T03:27:03.454Z,99.99
2019-05-17T03:28:03.492Z,99.99
2019-05-17T03:29:03.644Z,99.99
2019-05-17T03:30:04.539Z,99.99
2019-05-17T03:31:07.560Z,99.99
2019-05-17T03:32:08.801Z,99.99
2019-05-17T03:33:07.466Z,99.99
2019-05-17T03:34:06.398Z,99.99
2019-05-17T03:35:06.738Z,99.99
2019-05-17T03:36:06.113Z,99.99
2019-05-17T03:37:06.117Z,99.99
2019-05-17T03:38:04.013Z,99.99
2019-05-17T03:39:03.394Z,99.99
2019-05-17T03:40:22.914Z,99.99
2019-05-17T03:41:17.039Z,99.99
2019-05-17T03:42:03.290Z,99.99
2019-05-17T03:43:03.306Z,99.99
2019-05-17T03:44:03.554Z,99.99
2019-05-17T03:45:03.369Z,99.99
2019-05-17T03:46:03.284Z,99.99
2019-05-17T03:47:03.255Z,99.99
2019-05-17T03:48:04.846Z,99.99
2019-05-17T03:49:04.098Z,99.99
2019-05-17T03:50:03.491Z,99.99
2019-05-17T03:51:03.237Z,99.99
2019-05-17T03:52:03.238Z,99.99
2019-05-17T03:53:03.220Z,99.99
2019-05-17T03:54:03.204Z,99.99
2019-05-17T03:55:04.191Z,99.99
2019-05-17T03:56:03.306Z,99.99
2019-05-17T03:57:03.225Z,99.99
2019-05-17T03:58:03.803Z,99.99
2019-05-17T03:59:03.924Z,99.99
2019-05-17T04:00:04.036Z,99.99
2019-05-17T04:01:04.214Z,99.99
2019-05-17T04:02:03.635Z,99.99
2019-05-17T04:03:03.437Z,99.99
2019-05-17T04:04:03.305Z,99.99
2019-05-17T04:05:04.389Z,99.99
2019-05-17T04:06:04.070Z,99.99
2019-05-17T04:24:12.671Z,99.99
2019-05-17T04:25:13.424Z,99.99
2019-05-17T04:27:15.133Z,99.99
2019-05-17T04:28:15.091Z,99.99
2019-05-17T04:30:19.070Z,99.99
2019-05-17T04:31:19.053Z,99.99
2019-05-17T04:33:23.626Z,99.99
2019-05-17T04:34:23.026Z,99.99
2019-05-17T04:36:27.020Z,99.99
2019-05-17T04:37:27.003Z,99.99
2019-05-17T04:39:32.668Z,99.99
2019-05-17T04:40:34.019Z,99.13
2019-05-17T04:42:34.964Z,94.12
2019-05-17T04:43:35.010Z,92.83
2019-05-17T04:45:38.932Z,90.11
2019-05-17T04:46:38.921Z,88.63
2019-05-17T04:48:43.834Z,85.81
2019-05-17T04:49:43.928Z,84.09
2019-05-17T04:51:46.903Z,81.36
2019-05-17T04:52:46.889Z,81.16
2019-05-17T04:54:53.743Z,80.35
2019-05-17T04:55:53.923Z,79.49
2019-05-17T04:57:54.950Z,80.10
2019-05-17T04:58:54.966Z,79.24
2019-05-17T05:00:59.432Z,77.80
2019-05-17T05:02:02.727Z,77.46
2019-05-17T05:02:59.433Z,78.19
2019-05-17T05:03:59.438Z,79.29
2019-05-17T05:05:02.875Z,80.88
2019-05-17T05:06:02.642Z,83.76
2019-05-17T05:06:59.456Z,85.24
2019-05-17T05:08:02.664Z,85.14
2019-05-17T05:09:02.343Z,81.49
2019-05-17T05:10:02.656Z,77.94
2019-05-17T05:10:59.480Z,74.57
2019-05-17T05:12:02.627Z,71.53
2019-05-17T05:13:02.779Z,69.84
2019-05-17T05:14:02.462Z,68.53
2019-05-17T05:14:59.506Z,66.36
2019-05-17T05:15:59.508Z,64.28
2019-05-17T05:17:02.379Z,64.25
2019-05-17T05:18:02.208Z,64.09
2019-05-17T05:18:59.525Z,63.60
2019-05-17T05:20:02.526Z,64.63
2019-05-17T05:20:59.546Z,64.66
2019-05-17T05:22:04.067Z,63.64
2019-05-17T05:23:02.361Z,62.29
2019-05-17T05:23:59.566Z,61.16
2019-05-17T05:25:01.964Z,61.16
2019-05-17T05:25:59.584Z,61.26
2019-05-17T05:26:59.591Z,60.62
2019-05-17T05:27:59.601Z,59.94
2019-05-17T05:29:02.154Z,59.40
2019-05-17T05:29:59.616Z,58.92
2019-05-17T05:31:01.988Z,58.05
2019-05-17T05:32:02.166Z,59.37
2019-05-17T05:33:01.871Z,59.72
2019-05-17T05:34:01.785Z,59.59
2019-05-17T05:34:59.664Z,57.60
2019-05-17T05:36:02.035Z,56.92
2019-05-17T05:37:01.945Z,57.53
2019-05-17T05:38:02.013Z,56.21
2019-05-17T05:38:59.704Z,54.96
2019-05-17T05:40:02.059Z,55.05
2019-05-17T05:41:01.894Z,54.02
2019-05-17T05:42:08.063Z,53.25
2019-05-17T05:43:02.140Z,52.79
2019-05-17T05:44:01.935Z,52.59
2019-05-17T05:44:59.763Z,52.40
2019-05-17T05:46:02.329Z,52.31
2019-05-17T05:47:02.002Z,51.37
2019-05-17T05:48:01.795Z,51.59
2019-05-17T05:49:01.869Z,51.27
2019-05-17T05:50:01.840Z,51.56
2019-05-17T05:51:02.928Z,51.75
2019-05-17T05:52:01.787Z,51.90
2019-05-17T05:53:01.943Z,51.01
2019-05-17T05:54:01.635Z,50.62
2019-05-17T05:55:01.497Z,51.59
2019-05-17T05:56:02.909Z,52.89
2019-05-17T05:57:02.364Z,50.93
2019-05-17T05:57:59.919Z,48.11
2019-05-17T05:58:59.935Z,47.24
2019-05-17T06:00:02.214Z,48.25
2019-05-17T06:01:02.301Z,48.90
2019-05-17T06:02:01.812Z,49.10
2019-05-17T06:02:59.997Z,48.97
2019-05-17T06:03:59.994Z,49.00
2019-05-17T06:05:02.037Z,48.25
2019-05-17T06:06:01.782Z,48.03
2019-05-17T06:07:00.029Z,48.52
2019-05-17T06:08:00.126Z,49.19
2019-05-17T06:09:02.572Z,47.79
2019-05-17T06:10:02.176Z,46.90
2019-05-17T06:11:02.145Z,49.94
2019-05-17T06:12:02.240Z,55.71
2019-05-17T06:13:03.063Z,62.71
2019-05-17T06:14:01.620Z,68.27
2019-05-17T06:15:02.565Z,69.58
2019-05-17T06:16:02.410Z,70.98
2019-05-17T06:17:02.760Z,73.34
2019-05-17T06:18:02.712Z,74.20
2019-05-17T06:19:02.177Z,74.65
2019-05-17T06:20:02.375Z,76.02
2019-05-17T06:21:02.710Z,75.98
2019-05-17T06:22:02.539Z,76.84
2019-05-17T06:23:02.406Z,77.42
2019-05-17T06:24:02.441Z,78.38
2019-05-17T06:25:03.458Z,77.99
2019-05-17T06:26:03.291Z,78.34
2019-05-17T06:27:01.899Z,79.77
2019-05-17T06:28:01.610Z,79.96
2019-05-17T06:29:02.591Z,81.16
2019-05-17T06:30:01.540Z,80.82
2019-05-17T06:31:02.630Z,81.11
2019-05-17T06:32:02.386Z,80.54
2019-05-17T06:33:02.381Z,80.25
2019-05-17T06:34:01.966Z,80.54
2019-05-17T06:35:01.872Z,82.45
2019-05-17T06:36:02.592Z,82.26
2019-05-17T06:37:02.239Z,81.30
2019-05-17T06:38:01.917Z,82.07
2019-05-17T06:39:02.185Z,82.17
2019-05-17T06:40:02.487Z,81.59
2019-05-17T06:41:01.617Z,81.21
2019-05-17T06:42:02.584Z,82.51
2019-05-17T06:43:03.985Z,83.03
2019-05-17T06:44:02.737Z,84.08
2019-05-17T06:45:02.180Z,82.45
2019-05-17T06:46:01.794Z,81.68
2019-05-17T06:47:02.441Z,81.11
2019-05-17T06:48:02.348Z,81.11
2019-05-17T06:49:02.818Z,80.73
2019-05-17T06:50:02.844Z,80.73
2019-05-17T06:51:02.439Z,81.59
2019-05-17T06:52:02.222Z,81.68
2019-05-17T06:53:02.916Z,81.02
2019-05-17T06:54:01.745Z,81.49
2019-05-17T06:55:03.488Z,81.11
2019-05-17T06:56:02.381Z,80.92
2019-05-17T06:57:03.053Z,80.98
2019-05-17T06:58:01.754Z,81.68
2019-05-17T06:59:00.162Z,80.73
2019-05-17T07:00:02.421Z,81.45
2019-05-17T07:01:00.178Z,81.07
2019-05-17T07:02:00.166Z,81.59
2019-05-17T07:03:00.685Z,80.92
2019-05-17T07:04:00.423Z,81.78
2019-05-17T07:05:01.529Z,80.92
2019-05-17T07:06:00.157Z,80.92
2019-05-17T07:07:00.197Z,81.59
2019-05-17T07:08:00.412Z,80.92
2019-05-17T07:09:00.981Z,80.92
2019-05-17T07:10:00.691Z,80.92
2019-05-17T07:11:00.149Z,80.88
2019-05-17T07:12:00.150Z,82.03
2019-05-17T07:13:01.873Z,81.93
2019-05-17T07:14:00.161Z,81.65
2019-05-17T07:15:01.755Z,82.31
2019-05-17T07:16:00.139Z,82.31
2019-05-17T07:17:00.139Z,82.51
2019-05-17T07:18:00.140Z,81.11
2019-05-17T07:19:00.138Z,80.92
2019-05-17T07:20:00.137Z,82.35
2019-05-17T07:21:03.352Z,81.59
2019-05-17T07:22:00.128Z,81.26
2019-05-17T07:23:00.572Z,81.55
2019-05-17T07:24:00.172Z,81.74
2019-05-17T07:25:00.133Z,82.03
2019-05-17T07:26:00.137Z,82.70
2019-05-17T07:27:00.120Z,82.17
2019-05-17T07:28:00.585Z,81.55
2019-05-17T07:29:00.119Z,81.26
2019-05-17T07:30:00.107Z,81.97
2019-05-17T07:31:00.111Z,82.45
2019-05-17T07:32:00.383Z,81.40
2019-05-17T07:33:00.627Z,80.98
2019-05-17T07:34:00.104Z,81.36
2019-05-17T07:35:00.244Z,81.30
2019-05-17T07:36:00.108Z,81.40
2019-05-17T07:37:00.107Z,81.16
2019-05-17T07:38:00.097Z,81.07
2019-05-17T07:39:00.758Z,81.49
2019-05-17T07:40:04.735Z,80.92
2019-05-17T07:41:00.090Z,80.92
2019-05-17T07:42:00.107Z,81.30
2019-05-17T07:43:10.130Z,81.11
2019-05-17T07:44:00.508Z,81.49
2019-05-17T07:45:00.654Z,80.92
2019-05-17T07:46:00.572Z,80.92
2019-05-17T07:47:00.218Z,80.63
2019-05-17T07:48:00.217Z,80.73
2019-05-17T07:49:00.530Z,80.73
2019-05-17T07:50:01.014Z,80.92
2019-05-17T07:51:00.081Z,81.49
2019-05-17T07:52:00.726Z,81.02
2019-05-17T07:53:00.620Z,81.40
2019-05-17T07:54:00.066Z,81.21
2019-05-17T07:55:02.458Z,81.11
2019-05-17T07:56:00.056Z,80.06
2019-05-17T07:57:00.326Z,79.10
2019-05-17T07:58:00.306Z,78.24
2019-05-17T07:59:00.194Z,78.43
2019-05-17T08:00:00.170Z,77.48
2019-05-17T08:01:02.084Z,78.24
2019-05-17T08:02:00.048Z,79.10
2019-05-17T08:03:00.119Z,78.14
2019-05-17T08:04:00.684Z,78.81
2019-05-17T08:05:00.673Z,78.72
2019-05-17T08:06:00.214Z,78.43
2019-05-17T08:07:00.038Z,79.10
2019-05-17T08:08:00.193Z,79.00
2019-05-17T08:09:03.897Z,78.63
2019-05-17T08:10:00.345Z,77.95
2019-05-17T08:11:00.513Z,78.24
2019-05-17T08:12:00.024Z,79.24
2019-05-17T08:13:00.026Z,78.57
2019-05-17T08:14:00.027Z,77.99
2019-05-17T08:15:00.126Z,78.38
2019-05-17T08:16:00.064Z,77.48
2019-05-17T08:17:00.021Z,78.09
2019-05-17T08:18:01.890Z,78.57
2019-05-17T08:19:00.428Z,78.38
2019-05-17T08:20:00.605Z,77.13
2019-05-17T08:21:00.008Z,77.42
2019-05-17T08:22:00.000Z,78.47
2019-05-17T08:23:00.017Z,78.19
2019-05-17T08:24:00.289Z,78.19
2019-05-17T08:25:00.286Z,77.70
2019-05-17T08:26:00.675Z,76.46
2019-05-17T08:27:00.069Z,76.65
2019-05-17T08:27:59.998Z,77.33
2019-05-17T08:29:00.756Z,77.70
2019-05-17T08:30:00.041Z,78.38
2019-05-17T08:31:01.086Z,78.19
2019-05-17T08:32:00.427Z,77.33
2019-05-17T08:33:00.895Z,75.98
2019-05-17T08:34:00.170Z,77.61
2019-05-17T08:35:00.473Z,77.55
2019-05-17T08:35:59.980Z,76.75
2019-05-17T08:37:01.061Z,75.45
2019-05-17T08:38:00.596Z,75.70
2019-05-17T08:38:59.981Z,76.56
2019-05-17T08:40:00.273Z,76.46
2019-05-17T08:41:00.724Z,76.56
2019-05-17T08:42:01.362Z,76.94
2019-05-17T08:43:00.182Z,76.02
2019-05-17T08:44:00.697Z,76.50
2019-05-17T08:45:00.365Z,77.26
2019-05-17T08:46:01.906Z,77.26
2019-05-17T08:46:59.968Z,76.89
2019-05-17T08:48:00.438Z,77.46
2019-05-17T08:49:00.368Z,77.26
2019-05-17T08:50:00.579Z,77.17
2019-05-17T08:51:00.263Z,75.93
2019-05-17T08:51:59.961Z,76.02
2019-05-17T08:53:00.062Z,76.50
2019-05-17T08:54:00.221Z,76.40
2019-05-17T08:55:00.531Z,75.83
2019-05-17T08:56:00.943Z,76.79
2019-05-17T08:57:00.647Z,76.89
2019-05-17T08:58:01.018Z,75.93
2019-05-17T08:59:00.797Z,74.58
2019-05-17T09:00:00.947Z,74.68
2019-05-17T09:01:00.456Z,74.87
2019-05-17T09:02:00.167Z,75.16
2019-05-17T09:03:00.127Z,75.93
2019-05-17T09:04:00.051Z,75.35
2019-05-17T09:05:00.445Z,74.97
2019-05-17T09:06:02.146Z,74.77
2019-05-17T09:07:03.010Z,75.16
2019-05-17T09:08:00.142Z,75.48
2019-05-17T09:09:00.767Z,74.82
2019-05-17T09:10:01.699Z,75.58
2019-05-17T09:11:00.560Z,76.54
2019-05-17T09:11:59.930Z,76.25
2019-05-17T09:12:59.934Z,75.77
2019-05-17T09:14:02.019Z,76.25
2019-05-17T09:15:00.454Z,75.87
2019-05-17T09:16:00.477Z,75.96
2019-05-17T09:17:00.453Z,74.62
2019-05-17T09:18:00.377Z,74.62
2019-05-17T09:19:00.474Z,75.10
2019-05-17T09:20:00.752Z,74.72
2019-05-17T09:21:00.522Z,73.76
2019-05-17T09:21:59.959Z,74.05
2019-05-17T09:23:00.157Z,74.91
2019-05-17T09:23:59.922Z,74.62
2019-05-17T09:24:59.913Z,76.73
2019-05-17T09:25:59.920Z,74.91
2019-05-17T09:26:59.992Z,74.82
2019-05-17T09:28:00.692Z,74.52
2019-05-17T09:29:01.199Z,74.91
2019-05-17T09:30:00.198Z,74.15
2019-05-17T09:31:00.211Z,75.20
2019-05-17T09:32:00.096Z,74.82
2019-05-17T09:33:00.384Z,74.05
2019-05-17T09:34:00.408Z,74.91
2019-05-17T09:35:00.366Z,74.33
2019-05-17T09:36:00.697Z,74.05
2019-05-17T09:37:00.317Z,74.05
2019-05-17T09:38:00.591Z,74.18
2019-05-17T09:39:00.229Z,73.57
2019-05-17T09:40:00.017Z,74.82
2019-05-17T09:41:00.197Z,73.80
2019-05-17T09:41:59.893Z,73.80
2019-05-17T09:43:00.509Z,72.64
2019-05-17T09:44:11.840Z,72.74
2019-05-17T09:45:00.317Z,73.90
2019-05-17T09:46:01.668Z,75.04
2019-05-17T09:46:59.892Z,75.43
2019-05-17T09:48:00.731Z,74.27
2019-05-17T09:49:01.076Z,74.37
2019-05-17T09:50:00.521Z,73.61
2019-05-17T09:51:00.224Z,73.41
2019-05-17T09:52:00.233Z,73.13
2019-05-17T09:53:00.083Z,73.51
2019-05-17T09:54:00.191Z,73.51
2019-05-17T09:55:00.683Z,73.45
2019-05-17T09:56:00.479Z,72.01
2019-05-17T09:57:00.460Z,71.88
2019-05-17T09:58:00.348Z,72.27
2019-05-17T09:59:00.470Z,72.88
2019-05-17T10:00:00.307Z,73.65
2019-05-17T10:01:01.324Z,73.26
2019-05-17T10:02:00.178Z,72.68
2019-05-17T10:03:00.150Z,74.60
2019-05-17T10:04:00.063Z,72.30
2019-05-17T10:05:00.023Z,71.69
2019-05-17T10:06:00.114Z,72.68
2019-05-17T10:06:59.879Z,73.07
2019-05-17T10:08:00.121Z,73.07
2019-05-17T10:09:00.231Z,73.74
2019-05-17T10:09:59.954Z,71.82
2019-05-17T10:11:08.347Z,73.07
2019-05-17T10:12:00.078Z,72.01
2019-05-17T10:13:00.313Z,71.53
2019-05-17T10:14:01.325Z,72.97
2019-05-17T10:15:00.503Z,72.97
2019-05-17T10:16:00.451Z,71.53
2019-05-17T10:17:00.403Z,70.76
2019-05-17T10:18:00.596Z,70.86
2019-05-17T10:19:00.153Z,69.52
2019-05-17T10:20:00.081Z,70.19
2019-05-17T10:21:00.033Z,70.57
2019-05-17T10:21:59.878Z,71.44
2019-05-17T10:22:59.863Z,71.92
2019-05-17T10:24:00.238Z,71.95
2019-05-17T10:25:00.345Z,70.99
2019-05-17T10:25:59.875Z,69.36
2019-05-17T10:26:59.857Z,69.84
2019-05-17T10:28:00.610Z,72.43
2019-05-17T10:28:59.863Z,69.26
2019-05-17T10:29:59.905Z,70.29
2019-05-17T10:31:02.418Z,70.90
2019-05-17T10:31:59.979Z,70.80
2019-05-17T10:33:00.165Z,71.28
2019-05-17T10:34:01.104Z,69.26
2019-05-17T10:35:00.290Z,69.84
2019-05-17T10:36:00.473Z,69.46
2019-05-17T10:36:59.853Z,69.46
2019-05-17T10:38:00.116Z,69.46
2019-05-17T10:38:59.881Z,70.70
2019-05-17T10:39:59.871Z,69.56
2019-05-17T10:40:59.856Z,70.13
2019-05-17T10:41:59.862Z,71.86
2019-05-17T10:43:00.751Z,71.95
2019-05-17T10:43:59.851Z,71.37
2019-05-17T10:45:00.079Z,70.57
2019-05-17T10:45:59.989Z,70.61
2019-05-17T10:46:59.855Z,69.46
2019-05-17T10:48:00.761Z,70.70
2019-05-17T10:48:59.856Z,70.26
2019-05-17T10:49:59.851Z,69.97
2019-05-17T10:51:00.369Z,68.34
2019-05-17T10:52:00.038Z,66.86
2019-05-17T10:53:00.557Z,67.06
2019-05-17T10:54:00.065Z,68.21
2019-05-17T10:55:00.080Z,69.07
2019-05-17T10:56:00.751Z,69.68
2019-05-17T10:56:59.915Z,69.49
2019-05-17T10:58:00.477Z,69.01
2019-05-17T10:59:00.211Z,70.55
2019-05-17T10:59:59.868Z,70.26
2019-05-17T11:01:00.812Z,70.55
2019-05-17T11:01:59.855Z,69.30
2019-05-17T11:03:00.470Z,69.40
2019-05-17T11:03:59.891Z,69.56
2019-05-17T11:05:00.770Z,70.84
2019-05-17T11:06:00.018Z,70.64
2019-05-17T11:06:59.850Z,68.53
2019-05-17T11:08:00.031Z,68.44
2019-05-17T11:08:59.849Z,69.40
2019-05-17T11:10:00.509Z,68.05
2019-05-17T11:10:59.848Z,67.41
2019-05-17T11:11:59.865Z,67.00
2019-05-17T11:12:59.860Z,66.13
2019-05-17T11:13:59.853Z,67.38
2019-05-17T11:15:10.514Z,68.05
2019-05-17T11:15:59.855Z,67.29
2019-05-17T11:18:39.267Z,70.10
2019-05-17T11:19:39.195Z,69.53
2019-05-17T11:20:39.232Z,67.32
2019-05-17T11:21:39.237Z,67.41
2019-05-17T11:22:39.183Z,67.22
2019-05-17T11:23:39.183Z,69.43
2019-05-17T11:24:39.211Z,67.90
2019-05-17T11:25:45.059Z,66.93
2019-05-17T11:26:39.229Z,66.26
2019-05-17T11:27:39.203Z,66.26
2019-05-17T11:28:39.227Z,66.74
2019-05-17T11:29:39.200Z,66.74
2019-05-17T11:30:39.213Z,67.80
2019-05-17T11:31:39.218Z,67.41
2019-05-17T11:32:39.195Z,66.64
2019-05-17T11:33:39.257Z,66.74
2019-05-17T11:34:48.929Z,65.97
2019-05-17T11:36:43.718Z,66.74
2019-05-17T11:37:43.701Z,67.03
2019-05-17T11:38:43.714Z,67.22
2019-05-17T11:39:43.679Z,66.16
2019-05-17T11:40:43.691Z,65.59
2019-05-17T11:41:43.695Z,66.07
2019-05-17T11:42:43.680Z,66.07
2019-05-17T11:43:43.714Z,65.59
2019-05-17T11:44:43.722Z,66.77
2019-05-17T11:45:43.731Z,65.14
2019-05-17T11:46:43.668Z,66.97
2019-05-17T11:47:43.680Z,65.81
2019-05-17T11:48:43.673Z,66.10
2019-05-17T11:49:43.674Z,65.91
2019-05-17T11:50:43.725Z,66.00
2019-05-17T11:51:43.694Z,66.16
2019-05-17T11:52:43.685Z,65.14
2019-05-17T11:53:43.706Z,66.58
2019-05-17T11:54:43.690Z,66.20
2019-05-17T11:55:43.675Z,66.77
2019-05-17T11:56:52.491Z,67.03
2019-05-17T11:58:49.259Z,65.81
2019-05-17T11:59:49.247Z,64.76
2019-05-17T12:00:57.884Z,65.62
2019-05-17T12:04:34.181Z,65.91
2019-05-17T12:05:34.127Z,65.66
2019-05-17T12:06:34.125Z,65.27
2019-05-17T12:07:34.110Z,66.23
2019-05-17T12:08:34.113Z,64.98
2019-05-17T12:09:37.430Z,65.84
2019-05-17T12:10:34.141Z,64.98
2019-05-17T12:11:34.095Z,64.79
2019-05-17T12:12:34.164Z,64.60
2019-05-17T12:13:34.115Z,65.37
2019-05-17T12:14:34.103Z,64.31
2019-05-17T12:15:44.240Z,65.27
2019-05-17T12:16:34.150Z,64.50
2019-05-17T12:17:34.145Z,63.83
2019-05-17T12:18:34.152Z,64.60
2019-05-17T12:19:37.118Z,64.31
2019-05-17T12:20:34.180Z,63.06
2019-05-17T12:21:34.097Z,64.69
2019-05-17T12:22:34.165Z,66.17
2019-05-17T12:23:34.123Z,62.68
2019-05-17T12:24:34.126Z,61.71
2019-05-17T12:25:34.118Z,63.45
2019-05-17T12:26:34.182Z,61.23
2019-05-17T12:27:34.136Z,61.71
2019-05-17T12:28:34.111Z,64.02
2019-05-17T12:29:34.134Z,62.77
2019-05-17T12:30:34.134Z,63.25
2019-05-17T12:31:34.110Z,63.06
2019-05-17T12:32:34.147Z,62.29
2019-05-17T12:33:34.135Z,62.48
2019-05-17T12:34:34.154Z,63.45
2019-05-17T12:35:34.189Z,63.76
2019-05-17T12:36:34.212Z,62.99
2019-05-17T12:37:34.129Z,60.97
2019-05-17T12:38:34.116Z,62.13
2019-05-17T12:39:34.179Z,60.59
2019-05-17T12:40:34.126Z,61.65
2019-05-17T12:41:34.142Z,61.55
2019-05-17T12:42:34.125Z,61.71
2019-05-17T12:43:34.216Z,61.52
2019-05-17T12:44:37.122Z,62.29
2019-05-17T12:45:34.145Z,62.00
2019-05-17T12:46:34.169Z,62.13
2019-05-17T12:47:34.185Z,63.15
2019-05-17T12:48:34.165Z,61.74
2019-05-17T12:49:34.164Z,62.23
2019-05-17T12:50:34.171Z,62.61
2019-05-17T12:51:34.193Z,62.51
2019-05-17T12:52:34.171Z,62.29
2019-05-17T12:53:34.178Z,62.48
2019-05-17T12:54:34.164Z,62.71
2019-05-17T12:55:34.165Z,62.61
2019-05-17T12:56:34.164Z,63.38
2019-05-17T12:57:34.155Z,61.74
2019-05-17T12:58:34.145Z,61.16
2019-05-17T12:59:34.154Z,62.13
2019-05-17T13:00:34.161Z,60.78
2019-05-17T13:01:34.156Z,61.16
2019-05-17T13:02:34.151Z,61.74
2019-05-17T13:03:34.174Z,62.41
2019-05-17T13:04:34.180Z,62.41
2019-05-17T13:05:34.305Z,61.65
2019-05-17T13:06:34.174Z,62.80
2019-05-17T13:07:34.219Z,63.18
2019-05-17T13:08:34.193Z,63.28
2019-05-17T13:09:43.034Z,62.64
2019-05-17T13:10:34.225Z,63.22
2019-05-17T13:11:34.243Z,61.58
2019-05-17T13:12:34.379Z,61.68
2019-05-17T13:13:34.202Z,61.97
2019-05-17T13:14:34.211Z,61.00
2019-05-17T13:15:34.192Z,60.91
2019-05-17T13:16:34.220Z,61.65
2019-05-17T13:17:34.248Z,61.68
2019-05-17T13:18:34.347Z,61.68
2019-05-17T13:19:34.234Z,61.68
2019-05-17T13:20:34.210Z,61.10
2019-05-17T13:21:34.250Z,62.06
2019-05-17T13:22:34.204Z,61.52
2019-05-17T13:23:34.205Z,61.80
2019-05-17T13:24:34.238Z,62.38
2019-05-17T13:25:34.300Z,61.52
2019-05-17T13:26:34.220Z,61.13
2019-05-17T13:27:42.911Z,60.27
2019-05-17T13:30:02.596Z,59.78